Time;durP1;ratioP1;P1;durP2;ratioP2;P2;SDS_P1;SDS_P2;PMS_P1;PMS_P2;Temp;Humidity;BMP_temperature;BMP_pressure;BME280_temperature;BME280_humidity;BME280_pressure;Samples;Min_cycle;Max_cycle;Signal;HPM_P1;HPM_P2
2022/11/26 00:02:35;;;;;;;0.00;0.00;;;7.60;99.90;;;;;;5026046;28;20598;-76
2022/11/26 00:05:04;;;;;;;0.55;0.43;;;7.60;99.90;;;;;;5046088;28;20151;-75
2022/11/26 00:07:32;;;;;;;0.00;0.00;;;7.60;99.90;;;;;;5033287;28;20025;-76
2022/11/26 00:09:58;;;;;;;0.00;0.00;;;7.60;99.90;;;;;;5036350;28;20038;-75
2022/11/26 00:12:32;;;;;;;0.00;0.00;;;7.60;99.90;;;;;;5027538;28;20029;-75
2022/11/26 00:15:18;;;;;;;0.00;0.00;;;7.60;99.90;;;;;;5030683;28;20022;-76
2022/11/26 00:17:51;;;;;;;0.10;0.10;;;7.60;99.90;;;;;;5025501;28;20025;-75
2022/11/26 00:20:21;;;;;;;0.00;0.00;;;7.60;99.90;;;;;;5027216;28;20025;-74
2022/11/26 00:22:53;;;;;;;0.00;0.00;;;7.60;99.90;;;;;;5047890;28;20020;-74
2022/11/26 00:25:25;;;;;;;0.00;0.00;;;7.60;99.90;;;;;;5023833;28;20029;-75
2022/11/26 00:27:53;;;;;;;0.00;0.00;;;7.50;99.90;;;;;;5026640;28;20478;-75
2022/11/26 00:30:26;;;;;;;0.00;0.00;;;7.60;99.90;;;;;;5050611;28;20528;-75
2022/11/26 00:32:53;;;;;;;0.00;0.00;;;7.60;99.90;;;;;;5022388;28;20009;-76
2022/11/26 00:35:28;;;;;;;0.00;0.00;;;7.60;99.90;;;;;;5031153;28;20025;-75
2022/11/26 00:37:57;;;;;;;0.00;0.00;;;7.60;99.90;;;;;;5029131;28;20497;-76
2022/11/26 00:40:32;;;;;;;0.00;0.00;;;7.60;99.90;;;;;;5027005;28;20455;-75
2022/11/26 00:43:05;;;;;;;0.08;0.08;;;7.60;99.90;;;;;;5024654;28;20031;-76
2022/11/26 00:45:31;;;;;;;0.00;0.00;;;7.60;99.90;;;;;;5028868;28;20033;-76
2022/11/26 00:48:01;;;;;;;0.00;0.00;;;7.60;99.90;;;;;;5049434;28;20044;-76
2022/11/26 00:50:41;;;;;;;1.00;0.55;;;7.60;99.90;;;;;;5051016;28;20409;-76
2022/11/26 00:53:12;;;;;;;0.00;0.00;;;7.60;99.90;;;;;;5038951;28;20025;-76
2022/11/26 00:55:41;;;;;;;0.00;0.00;;;7.50;99.90;;;;;;5030844;28;20017;-75
2022/11/26 00:58:41;;;;;;;0.00;0.00;;;7.50;99.90;;;;;;5047841;28;20139;-76
2022/11/26 01:01:11;;;;;;;0.00;0.00;;;7.50;99.90;;;;;;4991628;28;20096;-76
2022/11/26 01:03:41;;;;;;;0.00;0.00;;;7.50;99.90;;;;;;4989441;28;20033;-75
2022/11/26 01:06:26;;;;;;;0.00;0.00;;;7.50;99.90;;;;;;4982556;28;20045;-75
2022/11/26 01:08:52;;;;;;;0.00;0.00;;;7.40;99.90;;;;;;4993147;28;20029;-75
2022/11/26 01:11:22;;;;;;;0.00;0.00;;;7.50;99.90;;;;;;5019352;28;20386;-75
2022/11/26 01:13:51;;;;;;;0.00;0.00;;;7.50;99.90;;;;;;5025522;28;20644;-75
2022/11/26 01:16:30;;;;;;;0.00;0.00;;;7.50;99.90;;;;;;5018459;28;20076;-75
2022/11/26 01:18:59;;;;;;;0.00;0.00;;;7.40;99.90;;;;;;5025511;28;20024;-76
2022/11/26 01:21:28;;;;;;;0.00;0.00;;;7.50;99.90;;;;;;5024414;28;20049;-75
2022/11/26 01:23:57;;;;;;;0.00;0.00;;;7.40;99.90;;;;;;5029397;28;20509;-75
2022/11/26 01:26:26;;;;;;;0.00;0.00;;;7.30;99.90;;;;;;5026826;28;20037;-75
2022/11/26 01:28:53;;;;;;;0.00;0.00;;;7.30;99.90;;;;;;5024404;28;20025;-76
2022/11/26 01:31:23;;;;;;;0.00;0.00;;;7.20;99.90;;;;;;5029506;28;20506;-76
2022/11/26 01:33:51;;;;;;;0.00;0.00;;;7.20;99.90;;;;;;5025016;28;20595;-75
2022/11/26 01:36:26;;;;;;;0.00;0.00;;;7.10;99.90;;;;;;5042748;28;20086;-76
2022/11/26 01:39:04;;;;;;;0.00;0.00;;;7.10;99.90;;;;;;5059362;28;20112;-75
2022/11/26 01:41:45;;;;;;;0.00;0.00;;;7.10;99.90;;;;;;5031379;28;20029;-74
2022/11/26 01:44:24;;;;;;;0.30;0.22;;;7.10;99.90;;;;;;5031193;28;20026;-75
2022/11/26 01:46:57;;;;;;;0.00;0.00;;;7.10;99.90;;;;;;5044094;28;20054;-74
2022/11/26 01:49:33;;;;;;;0.00;0.00;;;7.10;99.90;;;;;;5032359;28;20274;-74
2022/11/26 01:52:30;;;;;;;0.00;0.00;;;7.10;99.90;;;;;;5046860;28;20097;-75
2022/11/26 01:54:56;;;;;;;0.00;0.00;;;7.10;99.90;;;;;;5021225;28;20041;-75
2022/11/26 01:57:28;;;;;;;0.10;0.10;;;7.10;99.90;;;;;;5029700;28;20028;-75
2022/11/26 02:00:00;;;;;;;0.00;0.00;;;7.10;99.90;;;;;;5045531;28;20731;-76
2022/11/26 02:02:34;;;;;;;0.43;0.22;;;7.10;99.90;;;;;;5026712;28;20481;-75
2022/11/26 02:05:21;;;;;;;0.00;0.00;;;7.20;99.90;;;;;;5046346;28;20071;-76
2022/11/26 02:07:47;;;;;;;0.00;0.00;;;7.20;99.90;;;;;;5022712;28;20033;-75
2022/11/26 02:10:15;;;;;;;0.00;0.00;;;7.10;99.90;;;;;;5029847;28;20095;-74
2022/11/26 02:12:49;;;;;;;0.47;0.38;;;7.20;99.90;;;;;;5029268;28;20099;-76
2022/11/26 02:15:17;;;;;;;0.00;0.00;;;7.30;99.90;;;;;;5032990;28;20471;-76
2022/11/26 02:18:06;;;;;;;0.22;0.22;;;7.40;99.90;;;;;;5049993;28;20617;-75
2022/11/26 02:20:52;;;;;;;0.10;0.10;;;7.30;99.90;;;;;;5028973;28;20025;-79
2022/11/26 02:23:29;;;;;;;0.00;0.00;;;7.30;99.90;;;;;;5047056;28;20378;-77
2022/11/26 02:26:22;;;;;;;0.00;0.00;;;7.30;99.90;;;;;;5027699;28;20045;-78
2022/11/26 02:29:00;;;;;;;0.00;0.00;;;7.30;99.90;;;;;;5039676;28;20065;-77
2022/11/26 02:32:09;;;;;;;0.45;0.30;;;7.30;99.90;;;;;;5056798;28;20052;-77
2022/11/26 02:34:54;;;;;;;0.00;0.00;;;7.30;99.90;;;;;;5008931;28;20149;-77
2022/11/26 02:37:35;;;;;;;0.00;0.00;;;7.30;99.90;;;;;;5001926;28;20759;-78
2022/11/26 02:40:03;;;;;;;0.20;0.20;;;7.40;99.90;;;;;;5000126;28;20022;-78
2022/11/26 02:42:33;;;;;;;0.00;0.00;;;7.40;99.90;;;;;;5004293;28;20109;-78
2022/11/26 02:45:11;;;;;;;0.00;0.00;;;7.30;99.90;;;;;;5017846;28;20033;-77
2022/11/26 02:47:42;;;;;;;0.00;0.00;;;7.40;99.90;;;;;;5032697;28;20108;-77
2022/11/26 02:50:22;;;;;;;0.00;0.00;;;7.40;99.90;;;;;;5019448;28;20209;-77
2022/11/26 02:52:51;;;;;;;0.00;0.00;;;7.30;99.90;;;;;;5031081;28;20027;-77
2022/11/26 02:55:26;;;;;;;0.20;0.20;;;7.40;99.90;;;;;;5023311;28;20071;-77
2022/11/26 02:58:04;;;;;;;0.00;0.00;;;7.40;99.90;;;;;;5036504;28;20017;-77
2022/11/26 03:00:41;;;;;;;0.00;0.00;;;7.50;99.90;;;;;;5047727;28;20446;-77
2022/11/26 03:03:22;;;;;;;0.00;0.00;;;7.50;99.90;;;;;;5024205;28;20108;-77
2022/11/26 03:05:57;;;;;;;0.30;0.30;;;7.60;99.90;;;;;;5044535;28;20524;-78
2022/11/26 03:08:25;;;;;;;0.00;0.00;;;7.60;99.90;;;;;;5028724;28;20029;-77
2022/11/26 03:10:52;;;;;;;0.00;0.00;;;7.60;99.90;;;;;;5027927;28;20025;-77
2022/11/26 03:13:27;;;;;;;;;;;7.60;99.90;;;;;;5026848;28;20063;-79
2022/11/26 03:15:59;;;;;;;0.00;0.00;;;7.60;99.90;;;;;;5035787;28;20308;-78
2022/11/26 03:18:30;;;;;;;0.00;0.00;;;7.60;99.90;;;;;;5045174;28;20025;-78
2022/11/26 03:21:01;;;;;;;0.00;0.00;;;7.60;99.90;;;;;;5033470;28;20013;-78
2022/11/26 03:23:27;;;;;;;0.00;0.00;;;7.60;99.90;;;;;;5032976;28;20025;-78
2022/11/26 03:25:55;;;;;;;0.00;0.00;;;7.60;99.90;;;;;;5025998;28;20033;-77
2022/11/26 03:28:22;;;;;;;0.00;0.00;;;7.60;99.90;;;;;;5043984;28;20379;-77
2022/11/26 03:30:52;;;;;;;0.00;0.00;;;7.60;99.90;;;;;;5027692;28;20036;-77
2022/11/26 03:33:19;;;;;;;0.00;0.00;;;7.60;99.90;;;;;;5029768;28;20044;-77
2022/11/26 03:35:51;;;;;;;0.00;0.00;;;7.70;99.90;;;;;;5025255;28;20474;-76
2022/11/26 03:38:17;;;;;;;0.10;0.10;;;7.60;99.90;;;;;;5024391;28;20479;-78
2022/11/26 03:40:45;;;;;;;1.17;1.10;;;7.60;99.90;;;;;;5041183;28;20018;-77
2022/11/26 03:43:11;;;;;;;0.00;0.00;;;7.70;99.90;;;;;;5045910;28;20029;-78
2022/11/26 03:45:39;;;;;;;;;;;7.70;99.90;;;;;;5028394;28;20539;-77
2022/11/26 03:48:05;;;;;;;0.00;0.00;;;7.70;99.90;;;;;;5026272;28;19923;-77
2022/11/26 03:50:32;;;;;;;;;;;7.60;99.90;;;;;;5029620;28;20037;-77
2022/11/26 03:53:07;;;;;;;0.00;0.00;;;7.60;99.90;;;;;;5035195;28;19904;-77
2022/11/26 03:55:33;;;;;;;0.00;0.00;;;7.60;99.90;;;;;;5041217;28;20052;-78
2022/11/26 03:58:00;;;;;;;0.00;0.00;;;7.70;99.90;;;;;;5029208;28;20172;-78
2022/11/26 04:00:25;;;;;;;;;;;7.70;99.90;;;;;;5024417;28;20032;-77
2022/11/26 04:02:51;;;;;;;0.00;0.00;;;7.60;99.90;;;;;;5029346;28;19901;-78
2022/11/26 04:05:17;;;;;;;0.00;0.00;;;7.60;99.90;;;;;;5044362;28;20025;-78
2022/11/26 04:07:49;;;;;;;0.00;0.00;;;7.70;99.90;;;;;;5045421;28;20029;-77
2022/11/26 04:10:20;;;;;;;0.20;0.20;;;7.60;99.90;;;;;;5056978;28;20508;-79
2022/11/26 04:12:48;;;;;;;0.00;0.00;;;7.60;99.90;;;;;;5028437;28;20067;-78
2022/11/26 04:15:17;;;;;;;0.00;0.00;;;7.60;99.90;;;;;;5047283;28;20017;-78
2022/11/26 04:17:42;;;;;;;0.00;0.00;;;7.60;99.90;;;;;;5026357;28;20058;-78
2022/11/26 04:20:09;;;;;;;0.10;0.10;;;7.70;99.90;;;;;;5031660;28;20457;-78
2022/11/26 04:22:39;;;;;;;0.00;0.00;;;7.60;99.90;;;;;;5049501;28;20020;-79
2022/11/26 04:25:08;;;;;;;0.00;0.00;;;7.60;99.90;;;;;;5031131;28;20024;-78
2022/11/26 04:27:36;;;;;;;0.00;0.00;;;7.70;99.90;;;;;;5027314;28;20032;-77
2022/11/26 04:30:06;;;;;;;0.00;0.00;;;7.60;99.90;;;;;;5021870;28;20028;-78
2022/11/26 04:32:48;;;;;;;0.00;0.00;;;7.60;99.90;;;;;;5030337;28;20071;-79
2022/11/26 04:35:14;;;;;;;0.00;0.00;;;7.70;99.90;;;;;;5041562;28;20112;-78
2022/11/26 04:37:41;;;;;;;0.10;0.10;;;7.70;99.90;;;;;;5032454;28;20621;-79
2022/11/26 04:40:12;;;;;;;0.00;0.00;;;7.70;99.90;;;;;;5042393;28;20033;-79
2022/11/26 04:42:39;;;;;;;0.00;0.00;;;7.70;99.90;;;;;;5036930;28;20029;-79
2022/11/26 04:45:06;;;;;;;0.00;0.00;;;7.70;99.90;;;;;;5044462;28;20517;-79
2022/11/26 04:47:36;;;;;;;0.03;0.03;;;7.70;99.90;;;;;;5036193;28;20051;-79
2022/11/26 04:50:01;;;;;;;0.00;0.00;;;7.70;99.90;;;;;;5049513;28;20088;-79
2022/11/26 04:52:29;;;;;;;0.00;0.00;;;7.70;99.90;;;;;;5043746;28;20021;-79
2022/11/26 04:54:57;;;;;;;0.08;0.08;;;7.70;99.90;;;;;;5029123;28;20071;-79
2022/11/26 04:57:23;;;;;;;0.00;0.00;;;7.70;99.90;;;;;;5029510;28;20017;-79
2022/11/26 04:59:52;;;;;;;;;;;7.70;99.90;;;;;;5045008;28;20021;-79
2022/11/26 05:02:18;;;;;;;0.00;0.00;;;7.70;99.90;;;;;;5028011;28;19908;-78
2022/11/26 05:04:43;;;;;;;0.00;0.00;;;7.70;99.90;;;;;;5025649;28;20079;-79
2022/11/26 05:07:18;;;;;;;0.00;0.00;;;7.70;99.90;;;;;;5029642;28;20048;-77
2022/11/26 05:09:48;;;;;;;0.00;0.00;;;7.70;99.90;;;;;;5028703;28;20029;-78
2022/11/26 05:12:26;;;;;;;0.00;0.00;;;7.70;99.90;;;;;;5040335;28;20065;-78
2022/11/26 05:14:54;;;;;;;0.00;0.00;;;7.70;99.90;;;;;;5030261;28;20041;-78
2022/11/26 05:17:32;;;;;;;0.00;0.00;;;7.70;99.90;;;;;;5042251;28;20032;-77
2022/11/26 05:19:58;;;;;;;0.00;0.00;;;7.60;99.90;;;;;;5033642;28;20025;-78
2022/11/26 05:22:24;;;;;;;0.00;0.00;;;7.70;99.90;;;;;;5030379;28;20518;-78
2022/11/26 05:24:51;;;;;;;0.00;0.00;;;7.70;99.90;;;;;;5031085;28;20048;-78
2022/11/26 05:27:21;;;;;;;0.00;0.00;;;7.80;99.90;;;;;;5060455;28;20040;-78
2022/11/26 05:29:47;;;;;;;0.00;0.00;;;7.80;99.90;;;;;;5051491;28;20108;-78
2022/11/26 05:32:12;;;;;;;0.00;0.00;;;7.70;99.90;;;;;;5049949;28;20113;-79
2022/11/26 05:34:41;;;;;;;0.10;0.10;;;7.70;99.90;;;;;;5036963;28;20053;-78
2022/11/26 05:37:08;;;;;;;0.00;0.00;;;7.80;99.90;;;;;;5049425;28;20559;-79
2022/11/26 05:39:35;;;;;;;;;;;7.70;99.90;;;;;;5027784;28;20102;-78
2022/11/26 05:42:01;;;;;;;0.00;0.00;;;7.70;99.90;;;;;;5053421;28;19924;-78
2022/11/26 05:44:30;;;;;;;0.00;0.00;;;7.70;99.90;;;;;;5036148;28;20525;-78
2022/11/26 05:46:56;;;;;;;0.00;0.00;;;7.70;99.90;;;;;;5039531;28;20088;-78
2022/11/26 05:49:24;;;;;;;0.00;0.00;;;7.60;99.90;;;;;;5030402;28;20048;-80
2022/11/26 05:52:03;;;;;;;0.00;0.00;;;7.70;99.90;;;;;;5029264;28;20066;-78
2022/11/26 05:54:30;;;;;;;0.05;0.05;;;7.70;99.90;;;;;;5032450;28;20033;-77
2022/11/26 05:57:06;;;;;;;0.00;0.00;;;7.70;99.90;;;;;;5033645;28;20058;-78
2022/11/26 05:59:32;;;;;;;0.00;0.00;;;7.70;99.90;;;;;;5047298;28;20497;-77
2022/11/26 06:02:02;;;;;;;0.00;0.00;;;7.80;99.90;;;;;;5046470;28;20021;-78
2022/11/26 06:04:28;;;;;;;0.00;0.00;;;7.70;99.90;;;;;;5031065;28;20531;-78
2022/11/26 06:07:04;;;;;;;0.00;0.00;;;7.80;99.90;;;;;;5045227;28;20100;-78
2022/11/26 06:09:30;;;;;;;0.00;0.00;;;7.80;99.90;;;;;;5031238;28;20142;-78
2022/11/26 06:11:57;;;;;;;;;;;7.80;99.90;;;;;;5033752;28;20032;-78
2022/11/26 06:14:23;;;;;;;0.00;0.00;;;7.80;99.90;;;;;;5025604;28;19959;-78
2022/11/26 06:16:48;;;;;;;0.00;0.00;;;7.80;99.90;;;;;;5032797;28;20021;-78
2022/11/26 06:19:15;;;;;;;0.00;0.00;;;7.80;99.90;;;;;;5028732;28;20025;-77
2022/11/26 06:21:43;;;;;;;;;;;7.90;99.90;;;;;;5024294;28;20056;-77
2022/11/26 06:24:08;;;;;;;0.00;0.00;;;7.80;99.90;;;;;;5038043;28;20008;-78
2022/11/26 06:26:41;;;;;;;0.00;0.00;;;7.80;99.90;;;;;;5028352;28;20124;-77
2022/11/26 06:29:09;;;;;;;0.10;0.10;;;7.80;99.90;;;;;;5026988;28;20124;-78
2022/11/26 06:31:34;;;;;;;0.00;0.00;;;7.80;99.90;;;;;;5048688;28;20413;-77
2022/11/26 06:34:02;;;;;;;0.30;0.30;;;7.90;99.90;;;;;;5042756;28;20037;-78
2022/11/26 06:36:28;;;;;;;0.00;0.00;;;7.90;99.90;;;;;;5050395;28;20424;-77
2022/11/26 06:38:54;;;;;;;0.10;0.10;;;8.00;99.90;;;;;;5025597;28;20067;-78
2022/11/26 06:41:20;;;;;;;;;;;7.90;99.90;;;;;;5040907;28;20053;-78
2022/11/26 06:43:46;;;;;;;0.00;0.00;;;7.90;99.90;;;;;;5027037;28;20274;-78
2022/11/26 06:46:12;;;;;;;0.00;0.00;;;7.90;99.90;;;;;;5027878;28;20104;-78
2022/11/26 06:48:47;;;;;;;0.00;0.00;;;7.90;99.90;;;;;;5036386;28;20843;-78
2022/11/26 06:51:15;;;;;;;0.28;0.17;;;7.90;99.90;;;;;;5045000;28;20083;-76
2022/11/26 06:53:42;;;;;;;0.00;0.00;;;7.90;99.90;;;;;;5050028;28;20028;-78
2022/11/26 06:56:15;;;;;;;0.20;0.20;;;7.90;99.90;;;;;;5026597;28;20084;-78
2022/11/26 06:58:43;;;;;;;0.00;0.00;;;8.00;99.90;;;;;;5031093;28;20147;-79
2022/11/26 07:01:18;;;;;;;0.00;0.00;;;7.90;99.90;;;;;;5043015;28;20029;-77
2022/11/26 07:03:59;;;;;;;0.00;0.00;;;8.00;99.90;;;;;;5032630;28;20105;-77
2022/11/26 07:06:29;;;;;;;0.00;0.00;;;8.10;99.90;;;;;;5027194;28;20045;-78
2022/11/26 07:08:58;;;;;;;0.00;0.00;;;8.10;99.90;;;;;;5025038;28;20024;-77
2022/11/26 07:11:25;;;;;;;0.00;0.00;;;8.10;99.90;;;;;;5051708;28;20032;-78
2022/11/26 07:13:56;;;;;;;0.00;0.00;;;8.10;99.90;;;;;;5027588;28;20352;-76
2022/11/26 07:16:23;;;;;;;0.00;0.00;;;8.10;99.90;;;;;;5029515;28;20013;-75
2022/11/26 07:18:50;;;;;;;;;;;8.20;99.90;;;;;;5040064;28;20032;-76
2022/11/26 07:21:18;;;;;;;0.00;0.00;;;8.10;99.90;;;;;;5046731;28;20119;-75
2022/11/26 07:23:46;;;;;;;0.03;0.03;;;8.20;99.90;;;;;;5041799;28;20033;-74
2022/11/26 07:26:14;;;;;;;0.00;0.00;;;8.20;99.90;;;;;;5026486;28;20774;-76
2022/11/26 07:28:40;;;;;;;0.00;0.00;;;8.20;99.90;;;;;;5031996;28;20569;-78
2022/11/26 07:31:16;;;;;;;0.00;0.00;;;8.30;99.90;;;;;;5050771;28;20030;-78
2022/11/26 07:33:49;;;;;;;0.20;0.20;;;8.30;99.90;;;;;;5031102;28;20029;-79
2022/11/26 07:36:41;;;;;;;0.00;0.00;;;8.40;99.90;;;;;;5033987;28;20100;-78
2022/11/26 07:39:14;;;;;;;0.00;0.00;;;8.40;99.90;;;;;;5032763;28;20029;-79
2022/11/26 07:41:43;;;;;;;0.00;0.00;;;8.50;99.90;;;;;;5028674;28;20021;-77
2022/11/26 07:44:17;;;;;;;0.00;0.00;;;8.50;99.90;;;;;;5032211;28;20023;-78
2022/11/26 07:46:46;;;;;;;0.00;0.00;;;8.40;99.90;;;;;;5046728;28;20378;-78
2022/11/26 07:49:12;;;;;;;0.00;0.00;;;8.50;99.90;;;;;;5027969;28;20023;-79
2022/11/26 07:51:40;;;;;;;0.00;0.00;;;8.50;99.90;;;;;;5025774;28;20039;-77
2022/11/26 07:54:08;;;;;;;0.00;0.00;;;8.50;99.90;;;;;;5031672;28;20186;-77
2022/11/26 07:56:35;;;;;;;0.00;0.00;;;8.50;99.90;;;;;;5049668;28;20028;-77
